Haaren, Netherlands
Current Conditions -  °F | °C
As of 5:40 AM on Friday 21 Nov 2014 (Local Time) from EHGR Reporting Station
Haze Haze  
Wind Chill: 31°   Ceiling: Unl
Heat Index: 36°   Visibility: 2.3mi
Dew Point: 36°   Wind: 6mph
Humidity: 100%   Direction: 90°E
Pressure: 30.21"   Gusts: NA
Location:  51.6°N, 5.22°E
Report Text: EHGR 210440Z AUTO 09005KT 3700 BR NCD 02/02 Q1023 GRN
Loading
Personal Weather Stations






























Interactive Weather Map New forecast layout! Learn more

10-Day Weather Forecast

Advertisements
Track Severe Weather on mobile